Weather observations for the past three days for
Waco, Mc Gregor Executive Airport
Imperial (Metric)
Date Time (cdt) Wind (mph) Vis. (mi.) Weather Sky Cond. Temperature (ºF) Relative Humidity Wind Chill (°F) Heat Index (°F) Pressure Precipitation (in)
Air Dwpt 6 hour altimeter (in) sea level (mb) 1 hr 3 hr 6 hr
Max. Min.
08 19:56 SE 5 9.00 Overcast OVC016 73 70 90% 29.8 1008.5
08 18:56 S 8 10.00 Overcast OVC070 73.9 69.1 75.9 66.9 85% 29.8 1008.6
08 17:56 SE 9 10.00 Mostly Cloudy SCT015 BKN075 75 69.1 82% 75 29.8 1008.6
08 16:56 SE 8 10.00 Mostly Cloudy BKN017 BKN024 75 68 79% 76 29.82 1009.2
08 15:56 SE 5 10.00 Overcast OVC015 73 66.9 81% 29.85 1010.2
08 14:56 SE 7 10.00 Overcast OVC017 71.1 66 84% 29.87 1010.9
08 13:56 E 5 10.00 Overcast OVC017 70 64 82% 29.89 1011.6
08 12:56 Calm 10.00 Overcast OVC019 66.9 62.1 68 60.1 84% 29.92 1012.7
08 11:56 Vrbl 5 10.00 Overcast OVC021 68 62.1 81% 29.94 1013.6
08 10:56 NE 6 10.00 Overcast OVC021 66.9 60.1 79% 29.94 1013.5
08 09:56 NE 3 10.00 Overcast OVC023 64 59 84% 29.95 1013.9
08 08:56 Calm 10.00 Overcast OVC025 63 57.9 84% 29.96 1014.3
08 07:56 SE 3 10.00 Fair CLR 63 59 87% 29.96 1014.2
08 06:56 Calm 10.00 Overcast OVC024 60.1 60.1 60.1 55 100% 29.96 1014.1
08 05:56 S 5 10.00 Overcast OVC026 59 59 100% 29.96 1014.2
08 04:56 Calm 10.00 Overcast OVC030 57.9 57.9 100% 29.99 1015.3
08 03:56 NW 7 10.00 Overcast OVC120 55.9 55.9 100% 29.98 1014.9
08 02:56 Calm 8.00 Fair CLR 55 55 100% 29.97 1014.7
08 01:56 Calm 10.00 Fair CLR 55.9 55.9 100% 29.99 1015.1
08 00:56 Calm 10.00 Fair CLR 57 57 64.9 57 100% 29.99 1015.2
07 23:56 NW 6 10.00 Fair CLR 57.9 57.9 100% 30.01 1015.9
07 22:56 W 3 10.00 Fair CLR 59 59 100% 30.01 1015.8
07 21:56 N 3 10.00 Fair CLR 59 59 100% 29.99 1015.3
07 20:56 NW 3 10.00 Fair CLR 61 61 100% 29.98 1014.9
07 19:56 SW 3 10.00 Light Rain FEW039 BKN120 62.1 62.1 100% 29.99 1015.3
07 18:56 Calm 10.00 Light Rain FEW050 SCT060 SCT120 64.9 57.9 69.1 64 78% 29.98 1015.0
07 17:56 N 5 10.00 A Few Clouds FEW120 66.9 55.9 68% 30 1015.5
07 16:56 W 5 10.00 Mostly Cloudy FEW050 SCT065 BKN120 66 57 73% 30.04 1016.9
07 15:56 NE 9 10.00 Fair CLR 66 54 65% 30 1015.7
07 14:56 NE 6 10.00 Fair CLR 68 53.1 59% 30.05 1017.3
07 13:56 NE 6 10.00 Fair CLR 66 52 61% 30.07 1018.0
07 12:56 NE 9 10.00 Fair CLR 64.9 51.1 64.9 55.9 61% 30.08 1018.2
07 11:56 NE 6 10.00 Fair CLR 63 50 63% 30.1 1019.0
07 10:56 NE 14 G 21 10.00 Fair CLR 63 50 63% 30.1 1018.9
07 09:56 NE 13 G 17 10.00 Fair CLR 60.1 48.9 67% 30.11 1019.2
07 08:56 N 12 10.00 Fair CLR 57 51.1 81% 30.12 1019.6
07 07:56 N 13 G 18 10.00 Fair CLR 55.9 53.1 90% 30.11 1019.4
07 06:56 N 8 10.00 Overcast FEW012 OVC018 55.9 54 57.9 55.9 93% 30.1 1018.9
07 05:56 N 9 10.00 Overcast OVC012 57 55 93% 30.09 1018.6
07 04:56 N 10 10.00 Overcast OVC012 57.9 55.9 93% 30.07 1017.8
07 03:56 NE 10 10.00 Overcast OVC012 57.9 57 97% 30.03 1016.6
07 02:56 NE 12 G 18 10.00 Overcast OVC012 57.9 57 97% 30.01 1016.0
07 01:56 N 9 10.00 Mostly Cloudy BKN016 57.9 55.9 93% 30.01 1015.8
07 00:56 NE 10 10.00 Overcast BKN014 OVC022 57.9 55.9 62.1 57.9 93% 30.02 1016.1
06 23:56 NE 14 10.00 Partly Cloudy SCT032 59 55.9 90% 30.03 1016.6
06 22:56 N 10 10.00 Overcast FEW026 OVC032 61 55.9 84% 30.02 1016.2
06 21:56 N 8 10.00 Overcast SCT024 OVC032 61 55 81% 30.01 1016.0
06 20:56 N 7 10.00 Overcast OVC032 61 55.9 84% 29.98 1015.0
06 19:56 N 9 10.00 Overcast OVC030 62.1 55.9 80% 29.94 1013.7
06 18:56 N 9 10.00 Overcast OVC028 62.1 55.9 62.1 59 80% 29.93 1013.1
06 17:56 N 8 10.00 Overcast BKN017 OVC024 62.1 55.9 80% 29.92 1012.8
06 16:56 NW 7 10.00 Overcast OVC017 60.1 55 84% 29.93 1013.0
06 15:56 NW 10 10.00 Overcast OVC015 60.1 55 84% 29.94 1013.1
06 14:56 N 10 10.00 Overcast OVC015 61 55 81% 29.94 1013.1
06 13:56 N 14 10.00 Overcast OVC015 60.1 54 80% 29.94 1013.3
06 12:56 N 10 10.00 Overcast OVC013 59 53.1 63 55.9 81% 29.95 1013.7
06 11:56 N 13 G 18 10.00 Partly Cloudy SCT015 SCT035 62.1 55.9 80% 29.92 1012.6
06 10:56 N 14 10.00 Overcast BKN017 OVC050 57 54 90% 29.94 1013.3
06 09:56 N 21 G 26 10.00 Overcast and Breezy OVC015 57.9 55 90% 29.96 1014.0
06 08:56 N 13 10.00 Overcast OVC013 59 57.9 96% 29.9 1012.0
06 07:56 N 15 10.00 Overcast OVC011 61 61 100% 29.88 1011.3
06 06:56 N 10 5.00 Fog/Mist OVC005 62.1 62.1 75 62.1 100% 29.85 1010.3
06 05:56 N 12 G 17 6.00 Fog/Mist OVC010 64.9 64.9 100% 29.83 1009.5
06 04:56 N 8 10.00 Overcast OVC010 69.1 64 84% 29.8 1008.4
06 03:56 S 6 10.00 Overcast OVC012 75 73.9 96% 73 29.78 1007.7
06 02:56 S 9 10.00 Overcast OVC012 75 73.9 96% 73 29.78 1007.7
06 01:56 S 6 10.00 Overcast OVC012 75 73.9 96% 73 29.79 1008.1
06 00:56 Calm 10.00 Mostly Cloudy FEW014 BKN022 75 73.9 84 73.9 96% 73 29.79 1007.9
05 23:56 S 9 10.00 Fair CLR 75 73.9 96% 73 29.77 1007.3
05 22:56 S 10 10.00 Fair CLR 75.9 73.9 94% 75 29.76 1007.0
05 21:56 S 12 10.00 Fair CLR 77 73 88% 78 29.72 1005.8
05 20:56 S 8 10.00 Fair CLR 78.1 73 85% 81 29.71 1005.2
Date Time (cdt) Wind (mph) Vis. (mi.) Weather Sky Cond. Air Dwpt Max. Min. Relative Humidity Wind Chill (°F) Heat Index (°F) altimeter (in) sea level (mb) 1 hr 3 hr 6 hr
6 hour
Temperature (ºF) Pressure Precipitation (in)